sensor_id;sensor_type;location;lat;lon;timestamp;P1;durP1;ratioP1;P2;durP2;ratioP2
36383;SDS011;22418;51.210;6.976;2023-01-04T00:00:13;9.27;;;2.67;;
36383;SDS011;22418;51.210;6.976;2023-01-04T00:02:44;12.40;;;2.25;;
36383;SDS011;22418;51.210;6.976;2023-01-04T00:05:15;11.97;;;2.83;;
36383;SDS011;22418;51.210;6.976;2023-01-04T00:07:45;8.30;;;2.07;;
36383;SDS011;22418;51.210;6.976;2023-01-04T00:10:16;9.70;;;2.30;;
36383;SDS011;22418;51.210;6.976;2023-01-04T00:12:49;11.70;;;2.57;;
36383;SDS011;22418;51.210;6.976;2023-01-04T00:15:19;10.68;;;2.60;;
36383;SDS011;22418;51.210;6.976;2023-01-04T00:17:50;8.63;;;1.83;;
36383;SDS011;22418;51.210;6.976;2023-01-04T00:20:21;10.20;;;1.80;;
36383;SDS011;22418;51.210;6.976;2023-01-04T00:22:51;11.83;;;2.03;;
36383;SDS011;22418;51.210;6.976;2023-01-04T00:25:22;8.93;;;1.83;;
36383;SDS011;22418;51.210;6.976;2023-01-04T00:27:53;10.93;;;1.80;;
36383;SDS011;22418;51.210;6.976;2023-01-04T00:30:23;10.63;;;2.20;;
36383;SDS011;22418;51.210;6.976;2023-01-04T00:32:55;7.10;;;2.07;;
36383;SDS011;22418;51.210;6.976;2023-01-04T00:35:26;14.45;;;2.13;;
36383;SDS011;22418;51.210;6.976;2023-01-04T00:37:57;12.27;;;1.97;;
36383;SDS011;22418;51.210;6.976;2023-01-04T00:40:27;7.47;;;1.80;;
36383;SDS011;22418;51.210;6.976;2023-01-04T00:42:58;9.73;;;1.70;;
36383;SDS011;22418;51.210;6.976;2023-01-04T00:45:29;9.43;;;1.60;;
36383;SDS011;22418;51.210;6.976;2023-01-04T00:47:59;9.37;;;1.70;;
36383;SDS011;22418;51.210;6.976;2023-01-04T00:50:30;8.90;;;2.03;;
36383;SDS011;22418;51.210;6.976;2023-01-04T00:53:00;9.70;;;1.90;;
36383;SDS011;22418;51.210;6.976;2023-01-04T00:55:31;7.67;;;1.97;;
36383;SDS011;22418;51.210;6.976;2023-01-04T00:58:01;10.00;;;1.80;;
36383;SDS011;22418;51.210;6.976;2023-01-04T01:00:32;8.70;;;1.53;;
36383;SDS011;22418;51.210;6.976;2023-01-04T01:03:04;7.57;;;1.70;;
36383;SDS011;22418;51.210;6.976;2023-01-04T01:05:35;11.77;;;2.10;;
36383;SDS011;22418;51.210;6.976;2023-01-04T01:08:08;9.15;;;1.90;;
36383;SDS011;22418;51.210;6.976;2023-01-04T01:10:54;5.75;;;1.40;;
36383;SDS011;22418;51.210;6.976;2023-01-04T01:13:31;10.55;;;2.05;;
36383;SDS011;22418;51.210;6.976;2023-01-04T01:16:07;9.77;;;1.90;;
36383;SDS011;22418;51.210;6.976;2023-01-04T01:18:41;10.50;;;1.67;;
36383;SDS011;22418;51.210;6.976;2023-01-04T01:21:13;8.90;;;1.58;;
36383;SDS011;22418;51.210;6.976;2023-01-04T01:23:46;9.15;;;1.73;;
36383;SDS011;22418;51.210;6.976;2023-01-04T01:28:49;10.60;;;1.83;;
36383;SDS011;22418;51.210;6.976;2023-01-04T01:31:20;11.83;;;1.47;;
36383;SDS011;22418;51.210;6.976;2023-01-04T01:33:55;10.50;;;1.98;;
36383;SDS011;22418;51.210;6.976;2023-01-04T01:36:26;14.65;;;1.63;;
36383;SDS011;22418;51.210;6.976;2023-01-04T01:38:57;9.27;;;1.83;;
36383;SDS011;22418;51.210;6.976;2023-01-04T01:41:29;7.15;;;1.58;;
36383;SDS011;22418;51.210;6.976;2023-01-04T01:44:05;13.07;;;2.10;;
36383;SDS011;22418;51.210;6.976;2023-01-04T01:46:56;6.72;;;1.70;;
36383;SDS011;22418;51.210;6.976;2023-01-04T01:49:28;14.27;;;2.20;;
36383;SDS011;22418;51.210;6.976;2023-01-04T01:52:09;8.52;;;1.60;;
36383;SDS011;22418;51.210;6.976;2023-01-04T01:54:44;7.55;;;1.80;;
36383;SDS011;22418;51.210;6.976;2023-01-04T01:57:24;7.70;;;1.38;;
36383;SDS011;22418;51.210;6.976;2023-01-04T01:59:58;10.85;;;1.95;;
36383;SDS011;22418;51.210;6.976;2023-01-04T02:02:33;10.70;;;1.63;;
36383;SDS011;22418;51.210;6.976;2023-01-04T02:05:04;5.57;;;1.50;;
36383;SDS011;22418;51.210;6.976;2023-01-04T02:07:35;11.30;;;2.33;;
36383;SDS011;22418;51.210;6.976;2023-01-04T02:10:07;6.63;;;1.75;;
36383;SDS011;22418;51.210;6.976;2023-01-04T02:12:38;6.85;;;2.03;;
36383;SDS011;22418;51.210;6.976;2023-01-04T02:15:08;9.83;;;1.67;;
36383;SDS011;22418;51.210;6.976;2023-01-04T02:20:51;7.30;;;1.30;;
36383;SDS011;22418;51.210;6.976;2023-01-04T02:31:57;8.98;;;1.40;;
36383;SDS011;22418;51.210;6.976;2023-01-04T02:34:35;8.95;;;1.67;;
36383;SDS011;22418;51.210;6.976;2023-01-04T02:43:02;12.57;;;2.50;;
36383;SDS011;22418;51.210;6.976;2023-01-04T02:46:22;11.23;;;1.80;;
36383;SDS011;22418;51.210;6.976;2023-01-04T02:48:59;9.20;;;1.70;;
36383;SDS011;22418;51.210;6.976;2023-01-04T02:51:49;16.05;;;2.38;;
36383;SDS011;22418;51.210;6.976;2023-01-04T02:54:21;12.43;;;2.10;;
36383;SDS011;22418;51.210;6.976;2023-01-04T03:02:28;11.60;;;1.75;;
36383;SDS011;22418;51.210;6.976;2023-01-04T03:08:48;9.32;;;1.70;;
36383;SDS011;22418;51.210;6.976;2023-01-04T03:11:34;12.13;;;2.45;;
36383;SDS011;22418;51.210;6.976;2023-01-04T03:14:30;6.53;;;2.00;;
36383;SDS011;22418;51.210;6.976;2023-01-04T03:17:06;10.93;;;2.33;;
36383;SDS011;22418;51.210;6.976;2023-01-04T03:19:42;8.93;;;2.17;;
36383;SDS011;22418;51.210;6.976;2023-01-04T03:22:34;10.98;;;2.03;;
36383;SDS011;22418;51.210;6.976;2023-01-04T03:25:30;7.82;;;1.55;;
36383;SDS011;22418;51.210;6.976;2023-01-04T03:28:30;11.88;;;2.17;;
36383;SDS011;22418;51.210;6.976;2023-01-04T03:31:45;7.25;;;1.67;;
36383;SDS011;22418;51.210;6.976;2023-01-04T03:34:36;11.50;;;2.17;;
36383;SDS011;22418;51.210;6.976;2023-01-04T03:37:37;8.70;;;1.52;;
36383;SDS011;22418;51.210;6.976;2023-01-04T03:40:12;7.35;;;1.90;;
36383;SDS011;22418;51.210;6.976;2023-01-04T03:43:22;7.40;;;1.42;;
36383;SDS011;22418;51.210;6.976;2023-01-04T03:46:40;7.50;;;1.67;;
36383;SDS011;22418;51.210;6.976;2023-01-04T03:49:42;7.95;;;1.45;;
36383;SDS011;22418;51.210;6.976;2023-01-04T03:52:17;7.72;;;1.42;;
36383;SDS011;22418;51.210;6.976;2023-01-04T03:54:49;11.23;;;1.42;;
36383;SDS011;22418;51.210;6.976;2023-01-04T03:57:21;5.70;;;1.55;;
36383;SDS011;22418;51.210;6.976;2023-01-04T03:59:55;12.23;;;1.60;;
36383;SDS011;22418;51.210;6.976;2023-01-04T04:02:30;5.53;;;1.50;;
36383;SDS011;22418;51.210;6.976;2023-01-04T04:05:03;9.52;;;1.45;;
36383;SDS011;22418;51.210;6.976;2023-01-04T04:07:53;5.93;;;1.10;;
36383;SDS011;22418;51.210;6.976;2023-01-04T04:10:42;8.43;;;1.83;;
36383;SDS011;22418;51.210;6.976;2023-01-04T04:13:13;3.20;;;1.17;;
36383;SDS011;22418;51.210;6.976;2023-01-04T04:15:43;6.20;;;1.70;;
36383;SDS011;22418;51.210;6.976;2023-01-04T04:18:14;6.83;;;1.17;;
36383;SDS011;22418;51.210;6.976;2023-01-04T04:20:44;4.23;;;1.07;;
36383;SDS011;22418;51.210;6.976;2023-01-04T04:23:15;4.37;;;1.43;;
36383;SDS011;22418;51.210;6.976;2023-01-04T04:25:45;3.93;;;1.53;;
36383;SDS011;22418;51.210;6.976;2023-01-04T04:28:16;4.00;;;1.00;;
36383;SDS011;22418;51.210;6.976;2023-01-04T04:30:50;10.27;;;1.30;;
36383;SDS011;22418;51.210;6.976;2023-01-04T04:33:20;3.50;;;0.98;;
36383;SDS011;22418;51.210;6.976;2023-01-04T04:35:52;5.43;;;1.33;;
36383;SDS011;22418;51.210;6.976;2023-01-04T04:38:23;2.30;;;0.73;;
36383;SDS011;22418;51.210;6.976;2023-01-04T04:40:54;4.00;;;0.80;;
36383;SDS011;22418;51.210;6.976;2023-01-04T04:43:43;1.90;;;0.70;;
36383;SDS011;22418;51.210;6.976;2023-01-04T04:46:14;3.63;;;1.07;;
36383;SDS011;22418;51.210;6.976;2023-01-04T04:48:44;3.10;;;0.63;;
36383;SDS011;22418;51.210;6.976;2023-01-04T04:51:15;2.10;;;0.60;;
36383;SDS011;22418;51.210;6.976;2023-01-04T04:53:46;1.65;;;0.40;;
36383;SDS011;22418;51.210;6.976;2023-01-04T04:56:17;1.00;;;0.30;;
36383;SDS011;22418;51.210;6.976;2023-01-04T04:58:48;0.80;;;0.40;;
36383;SDS011;22418;51.210;6.976;2023-01-04T05:01:19;3.83;;;0.38;;
36383;SDS011;22418;51.210;6.976;2023-01-04T05:03:50;1.10;;;0.40;;
36383;SDS011;22418;51.210;6.976;2023-01-04T05:06:21;2.67;;;0.20;;
36383;SDS011;22418;51.210;6.976;2023-01-04T05:08:51;0.98;;;0.32;;
36383;SDS011;22418;51.210;6.976;2023-01-04T05:11:22;1.60;;;0.50;;
36383;SDS011;22418;51.210;6.976;2023-01-04T05:14:11;1.85;;;0.35;;
36383;SDS011;22418;51.210;6.976;2023-01-04T05:16:42;1.80;;;0.47;;
36383;SDS011;22418;51.210;6.976;2023-01-04T05:19:14;1.48;;;0.60;;
36383;SDS011;22418;51.210;6.976;2023-01-04T05:21:45;1.48;;;0.38;;
36383;SDS011;22418;51.210;6.976;2023-01-04T05:24:15;1.43;;;0.27;;
36383;SDS011;22418;51.210;6.976;2023-01-04T05:26:46;3.20;;;0.30;;
36383;SDS011;22418;51.210;6.976;2023-01-04T05:29:16;2.37;;;0.30;;
36383;SDS011;22418;51.210;6.976;2023-01-04T05:32:05;0.52;;;0.20;;
36383;SDS011;22418;51.210;6.976;2023-01-04T05:34:36;3.63;;;0.23;;
36383;SDS011;22418;51.210;6.976;2023-01-04T05:37:06;4.17;;;0.70;;
36383;SDS011;22418;51.210;6.976;2023-01-04T05:39:37;1.10;;;0.30;;
36383;SDS011;22418;51.210;6.976;2023-01-04T05:42:07;0.43;;;0.10;;
36383;SDS011;22418;51.210;6.976;2023-01-04T05:44:54;0.32;;;0.20;;
36383;SDS011;22418;51.210;6.976;2023-01-04T05:47:27;0.43;;;0.10;;
36383;SDS011;22418;51.210;6.976;2023-01-04T05:52:28;0.40;;;0.20;;
36383;SDS011;22418;51.210;6.976;2023-01-04T05:54:59;0.87;;;0.30;;
36383;SDS011;22418;51.210;6.976;2023-01-04T05:57:29;0.50;;;0.20;;
36383;SDS011;22418;51.210;6.976;2023-01-04T06:00:00;0.30;;;0.30;;
36383;SDS011;22418;51.210;6.976;2023-01-04T06:02:31;0.40;;;0.20;;
36383;SDS011;22418;51.210;6.976;2023-01-04T06:05:02;2.23;;;0.30;;
36383;SDS011;22418;51.210;6.976;2023-01-04T06:07:33;2.20;;;0.28;;
36383;SDS011;22418;51.210;6.976;2023-01-04T06:10:04;0.73;;;0.40;;
36383;SDS011;22418;51.210;6.976;2023-01-04T06:12:36;0.90;;;0.30;;
36383;SDS011;22418;51.210;6.976;2023-01-04T06:15:08;0.60;;;0.30;;
36383;SDS011;22418;51.210;6.976;2023-01-04T06:17:39;0.60;;;0.30;;
36383;SDS011;22418;51.210;6.976;2023-01-04T06:20:10;2.00;;;0.53;;
36383;SDS011;22418;51.210;6.976;2023-01-04T06:22:41;1.03;;;0.30;;
36383;SDS011;22418;51.210;6.976;2023-01-04T06:25:12;0.77;;;0.38;;
36383;SDS011;22418;51.210;6.976;2023-01-04T06:27:42;0.50;;;0.23;;
36383;SDS011;22418;51.210;6.976;2023-01-04T06:30:13;0.97;;;0.30;;
36383;SDS011;22418;51.210;6.976;2023-01-04T06:32:43;3.40;;;0.23;;
36383;SDS011;22418;51.210;6.976;2023-01-04T06:35:14;0.67;;;0.20;;
36383;SDS011;22418;51.210;6.976;2023-01-04T06:37:45;2.50;;;0.30;;
36383;SDS011;22418;51.210;6.976;2023-01-04T06:40:15;0.63;;;0.20;;
36383;SDS011;22418;51.210;6.976;2023-01-04T06:42:46;1.70;;;0.30;;
36383;SDS011;22418;51.210;6.976;2023-01-04T06:45:16;0.83;;;0.40;;
36383;SDS011;22418;51.210;6.976;2023-01-04T06:47:47;0.63;;;0.20;;
36383;SDS011;22418;51.210;6.976;2023-01-04T06:50:17;1.33;;;0.60;;
36383;SDS011;22418;51.210;6.976;2023-01-04T06:52:48;1.00;;;0.30;;
36383;SDS011;22418;51.210;6.976;2023-01-04T06:55:18;1.73;;;0.30;;
36383;SDS011;22418;51.210;6.976;2023-01-04T06:57:49;2.37;;;0.47;;
36383;SDS011;22418;51.210;6.976;2023-01-04T07:00:20;1.73;;;0.30;;
36383;SDS011;22418;51.210;6.976;2023-01-04T07:02:51;1.02;;;0.50;;
36383;SDS011;22418;51.210;6.976;2023-01-04T07:05:21;1.27;;;0.20;;
36383;SDS011;22418;51.210;6.976;2023-01-04T07:07:52;5.63;;;0.40;;
36383;SDS011;22418;51.210;6.976;2023-01-04T07:10:22;2.47;;;0.30;;
36383;SDS011;22418;51.210;6.976;2023-01-04T07:12:53;4.47;;;0.40;;
36383;SDS011;22418;51.210;6.976;2023-01-04T07:15:23;0.50;;;0.37;;
36383;SDS011;22418;51.210;6.976;2023-01-04T07:17:54;0.40;;;0.20;;
36383;SDS011;22418;51.210;6.976;2023-01-04T07:20:24;0.87;;;0.40;;
36383;SDS011;22418;51.210;6.976;2023-01-04T07:22:55;0.93;;;0.30;;
36383;SDS011;22418;51.210;6.976;2023-01-04T07:25:25;0.20;;;0.20;;
36383;SDS011;22418;51.210;6.976;2023-01-04T07:27:56;0.70;;;0.30;;
36383;SDS011;22418;51.210;6.976;2023-01-04T07:30:27;1.50;;;0.20;;
36383;SDS011;22418;51.210;6.976;2023-01-04T07:32:57;0.60;;;0.20;;
36383;SDS011;22418;51.210;6.976;2023-01-04T07:35:28;6.33;;;0.30;;
36383;SDS011;22418;51.210;6.976;2023-01-04T07:37:58;2.23;;;0.23;;
36383;SDS011;22418;51.210;6.976;2023-01-04T07:40:29;2.73;;;0.20;;
36383;SDS011;22418;51.210;6.976;2023-01-04T07:42:59;0.53;;;0.30;;
36383;SDS011;22418;51.210;6.976;2023-01-04T07:45:31;0.17;;;0.17;;
36383;SDS011;22418;51.210;6.976;2023-01-04T07:48:02;0.98;;;0.20;;
36383;SDS011;22418;51.210;6.976;2023-01-04T07:50:33;0.43;;;0.30;;
36383;SDS011;22418;51.210;6.976;2023-01-04T07:53:03;1.27;;;0.33;;
36383;SDS011;22418;51.210;6.976;2023-01-04T07:55:34;1.03;;;0.57;;
36383;SDS011;22418;51.210;6.976;2023-01-04T07:58:04;0.60;;;0.40;;
36383;SDS011;22418;51.210;6.976;2023-01-04T08:00:35;0.90;;;0.40;;
36383;SDS011;22418;51.210;6.976;2023-01-04T08:03:05;1.13;;;0.47;;
36383;SDS011;22418;51.210;6.976;2023-01-04T08:05:36;0.60;;;0.20;;
36383;SDS011;22418;51.210;6.976;2023-01-04T08:08:06;1.03;;;0.30;;
36383;SDS011;22418;51.210;6.976;2023-01-04T08:10:37;0.50;;;0.40;;
36383;SDS011;22418;51.210;6.976;2023-01-04T08:13:08;0.47;;;0.30;;
36383;SDS011;22418;51.210;6.976;2023-01-04T08:15:38;0.40;;;0.20;;
36383;SDS011;22418;51.210;6.976;2023-01-04T08:18:09;1.00;;;0.27;;
36383;SDS011;22418;51.210;6.976;2023-01-04T08:20:39;1.07;;;0.40;;
36383;SDS011;22418;51.210;6.976;2023-01-04T08:23:10;4.37;;;0.30;;
36383;SDS011;22418;51.210;6.976;2023-01-04T08:25:41;0.60;;;0.32;;
36383;SDS011;22418;51.210;6.976;2023-01-04T08:28:11;0.73;;;0.20;;
36383;SDS011;22418;51.210;6.976;2023-01-04T08:30:42;0.77;;;0.40;;
36383;SDS011;22418;51.210;6.976;2023-01-04T08:33:15;0.20;;;0.20;;
36383;SDS011;22418;51.210;6.976;2023-01-04T08:35:46;2.30;;;0.43;;
36383;SDS011;22418;51.210;6.976;2023-01-04T08:38:16;0.80;;;0.30;;
36383;SDS011;22418;51.210;6.976;2023-01-04T08:40:47;1.70;;;0.57;;
36383;SDS011;22418;51.210;6.976;2023-01-04T08:43:17;2.50;;;0.70;;
36383;SDS011;22418;51.210;6.976;2023-01-04T08:45:48;2.07;;;0.50;;
36383;SDS011;22418;51.210;6.976;2023-01-04T08:48:18;3.10;;;0.50;;
36383;SDS011;22418;51.210;6.976;2023-01-04T08:50:49;1.07;;;0.40;;
36383;SDS011;22418;51.210;6.976;2023-01-04T08:53:20;1.33;;;0.50;;
36383;SDS011;22418;51.210;6.976;2023-01-04T08:55:50;3.00;;;1.13;;
36383;SDS011;22418;51.210;6.976;2023-01-04T08:58:22;0.98;;;0.45;;
36383;SDS011;22418;51.210;6.976;2023-01-04T09:00:52;1.45;;;0.50;;
36383;SDS011;22418;51.210;6.976;2023-01-04T09:03:28;3.80;;;0.52;;
36383;SDS011;22418;51.210;6.976;2023-01-04T09:06:02;1.50;;;0.60;;
36383;SDS011;22418;51.210;6.976;2023-01-04T09:08:42;2.58;;;0.68;;
36383;SDS011;22418;51.210;6.976;2023-01-04T09:13:46;2.25;;;0.65;;
36383;SDS011;22418;51.210;6.976;2023-01-04T09:16:17;1.85;;;0.50;;
36383;SDS011;22418;51.210;6.976;2023-01-04T09:18:48;1.40;;;0.73;;
36383;SDS011;22418;51.210;6.976;2023-01-04T09:21:20;3.07;;;0.73;;
36383;SDS011;22418;51.210;6.976;2023-01-04T09:23:51;2.55;;;0.50;;
36383;SDS011;22418;51.210;6.976;2023-01-04T09:26:22;2.30;;;0.60;;
36383;SDS011;22418;51.210;6.976;2023-01-04T09:28:53;3.15;;;0.70;;
36383;SDS011;22418;51.210;6.976;2023-01-04T09:31:26;1.73;;;0.55;;
36383;SDS011;22418;51.210;6.976;2023-01-04T09:33:58;2.00;;;0.60;;
36383;SDS011;22418;51.210;6.976;2023-01-04T09:36:28;0.77;;;0.47;;
36383;SDS011;22418;51.210;6.976;2023-01-04T09:38:59;2.13;;;0.70;;
36383;SDS011;22418;51.210;6.976;2023-01-04T09:41:31;1.97;;;0.80;;
36383;SDS011;22418;51.210;6.976;2023-01-04T09:46:53;1.02;;;0.32;;
36383;SDS011;22418;51.210;6.976;2023-01-04T09:49:41;1.90;;;0.50;;
36383;SDS011;22418;51.210;6.976;2023-01-04T09:52:21;1.38;;;0.35;;
36383;SDS011;22418;51.210;6.976;2023-01-04T09:54:56;0.73;;;0.40;;
36383;SDS011;22418;51.210;6.976;2023-01-04T09:57:31;4.70;;;0.70;;
36383;SDS011;22418;51.210;6.976;2023-01-04T10:05:29;2.43;;;0.50;;
36383;SDS011;22418;51.210;6.976;2023-01-04T10:08:01;3.08;;;0.95;;
36383;SDS011;22418;51.210;6.976;2023-01-04T10:17:03;3.67;;;0.75;;
36383;SDS011;22418;51.210;6.976;2023-01-04T10:25:35;9.02;;;3.47;;
36383;SDS011;22418;51.210;6.976;2023-01-04T10:33:50;1.80;;;1.00;;
36383;SDS011;22418;51.210;6.976;2023-01-04T10:36:28;11.18;;;4.60;;
36383;SDS011;22418;51.210;6.976;2023-01-04T10:39:03;3.92;;;1.30;;
36383;SDS011;22418;51.210;6.976;2023-01-04T10:41:42;8.98;;;1.10;;
36383;SDS011;22418;51.210;6.976;2023-01-04T10:50:15;4.13;;;0.70;;
36383;SDS011;22418;51.210;6.976;2023-01-04T10:55:51;1.77;;;0.55;;
36383;SDS011;22418;51.210;6.976;2023-01-04T10:58:56;2.75;;;0.90;;
36383;SDS011;22418;51.210;6.976;2023-01-04T11:01:30;3.63;;;0.80;;
36383;SDS011;22418;51.210;6.976;2023-01-04T11:04:08;2.33;;;0.82;;
36383;SDS011;22418;51.210;6.976;2023-01-04T11:06:56;2.63;;;0.70;;
36383;SDS011;22418;51.210;6.976;2023-01-04T11:09:37;3.75;;;0.98;;
36383;SDS011;22418;51.210;6.976;2023-01-04T11:12:14;4.45;;;0.98;;
36383;SDS011;22418;51.210;6.976;2023-01-04T11:14:51;4.72;;;1.00;;
36383;SDS011;22418;51.210;6.976;2023-01-04T11:17:22;4.47;;;0.90;;
36383;SDS011;22418;51.210;6.976;2023-01-04T11:19:53;5.68;;;0.73;;
36383;SDS011;22418;51.210;6.976;2023-01-04T11:22:26;4.30;;;0.87;;
36383;SDS011;22418;51.210;6.976;2023-01-04T11:25:04;6.70;;;0.70;;
36383;SDS011;22418;51.210;6.976;2023-01-04T11:27:42;2.63;;;0.90;;
36383;SDS011;22418;51.210;6.976;2023-01-04T11:30:23;4.35;;;0.80;;
36383;SDS011;22418;51.210;6.976;2023-01-04T11:32:59;2.58;;;1.13;;
36383;SDS011;22418;51.210;6.976;2023-01-04T11:35:38;3.00;;;1.00;;
36383;SDS011;22418;51.210;6.976;2023-01-04T11:38:15;3.08;;;1.35;;
36383;SDS011;22418;51.210;6.976;2023-01-04T11:41:00;4.20;;;0.77;;
36383;SDS011;22418;51.210;6.976;2023-01-04T11:43:32;0.93;;;0.50;;
36383;SDS011;22418;51.210;6.976;2023-01-04T11:48:47;2.40;;;0.60;;
36383;SDS011;22418;51.210;6.976;2023-01-04T11:54:04;1.35;;;0.50;;
36383;SDS011;22418;51.210;6.976;2023-01-04T11:56:57;2.15;;;0.70;;
36383;SDS011;22418;51.210;6.976;2023-01-04T11:59:33;3.10;;;0.57;;
36383;SDS011;22418;51.210;6.976;2023-01-04T12:02:15;1.67;;;0.50;;
36383;SDS011;22418;51.210;6.976;2023-01-04T12:04:51;1.85;;;0.40;;
36383;SDS011;22418;51.210;6.976;2023-01-04T12:07:29;3.85;;;1.08;;
36383;SDS011;22418;51.210;6.976;2023-01-04T12:10:01;4.50;;;0.70;;
36383;SDS011;22418;51.210;6.976;2023-01-04T12:12:47;4.10;;;0.95;;
36383;SDS011;22418;51.210;6.976;2023-01-04T12:15:25;1.70;;;0.57;;
36383;SDS011;22418;51.210;6.976;2023-01-04T12:18:05;6.30;;;0.95;;
36383;SDS011;22418;51.210;6.976;2023-01-04T12:20:41;1.67;;;0.98;;
36383;SDS011;22418;51.210;6.976;2023-01-04T12:23:13;2.33;;;0.60;;
36383;SDS011;22418;51.210;6.976;2023-01-04T12:25:44;3.67;;;0.60;;
36383;SDS011;22418;51.210;6.976;2023-01-04T12:52:50;2.08;;;0.80;;
36383;SDS011;22418;51.210;6.976;2023-01-04T12:55:26;0.85;;;0.47;;
36383;SDS011;22418;51.210;6.976;2023-01-04T13:05:59;0.73;;;0.50;;
36383;SDS011;22418;51.210;6.976;2023-01-04T13:08:39;1.30;;;0.43;;
36383;SDS011;22418;51.210;6.976;2023-01-04T13:11:32;1.05;;;0.50;;
36383;SDS011;22418;51.210;6.976;2023-01-04T13:14:31;3.00;;;1.05;;
36383;SDS011;22418;51.210;6.976;2023-01-04T13:17:19;1.08;;;0.55;;
36383;SDS011;22418;51.210;6.976;2023-01-04T13:19:51;1.38;;;0.77;;
36383;SDS011;22418;51.210;6.976;2023-01-04T13:22:24;3.70;;;0.80;;
36383;SDS011;22418;51.210;6.976;2023-01-04T13:24:57;1.13;;;0.32;;
36383;SDS011;22418;51.210;6.976;2023-01-04T13:27:29;0.70;;;0.30;;
36383;SDS011;22418;51.210;6.976;2023-01-04T13:29:59;1.50;;;0.60;;
36383;SDS011;22418;51.210;6.976;2023-01-04T13:32:32;1.33;;;0.52;;
36383;SDS011;22418;51.210;6.976;2023-01-04T13:35:07;0.60;;;0.40;;
36383;SDS011;22418;51.210;6.976;2023-01-04T13:37:42;3.13;;;1.15;;
36383;SDS011;22418;51.210;6.976;2023-01-04T13:45:35;0.93;;;0.60;;
36383;SDS011;22418;51.210;6.976;2023-01-04T13:48:24;0.80;;;0.45;;
36383;SDS011;22418;51.210;6.976;2023-01-04T13:51:02;0.57;;;0.40;;
36383;SDS011;22418;51.210;6.976;2023-01-04T13:53:53;0.52;;;0.30;;
36383;SDS011;22418;51.210;6.976;2023-01-04T13:56:26;1.05;;;0.40;;
36383;SDS011;22418;51.210;6.976;2023-01-04T13:59:01;1.23;;;0.35;;
36383;SDS011;22418;51.210;6.976;2023-01-04T14:01:34;0.93;;;0.60;;
36383;SDS011;22418;51.210;6.976;2023-01-04T14:04:12;1.42;;;0.47;;
36383;SDS011;22418;51.210;6.976;2023-01-04T14:06:53;0.90;;;0.50;;
36383;SDS011;22418;51.210;6.976;2023-01-04T14:09:28;1.55;;;0.50;;
36383;SDS011;22418;51.210;6.976;2023-01-04T14:12:17;0.60;;;0.40;;
36383;SDS011;22418;51.210;6.976;2023-01-04T14:14:55;3.28;;;0.40;;
36383;SDS011;22418;51.210;6.976;2023-01-04T14:22:50;1.30;;;0.60;;
36383;SDS011;22418;51.210;6.976;2023-01-04T14:33:43;0.60;;;0.40;;
36383;SDS011;22418;51.210;6.976;2023-01-04T14:36:27;0.85;;;0.40;;
36383;SDS011;22418;51.210;6.976;2023-01-04T14:41:40;1.05;;;0.50;;
36383;SDS011;22418;51.210;6.976;2023-01-04T14:46:44;0.68;;;0.32;;
36383;SDS011;22418;51.210;6.976;2023-01-04T14:49:17;2.45;;;0.70;;
36383;SDS011;22418;51.210;6.976;2023-01-04T14:56:53;3.47;;;0.50;;
36383;SDS011;22418;51.210;6.976;2023-01-04T14:59:25;2.42;;;1.02;;
36383;SDS011;22418;51.210;6.976;2023-01-04T15:01:56;1.23;;;0.60;;
36383;SDS011;22418;51.210;6.976;2023-01-04T15:04:27;1.63;;;0.70;;
36383;SDS011;22418;51.210;6.976;2023-01-04T15:06:58;0.57;;;0.40;;
36383;SDS011;22418;51.210;6.976;2023-01-04T15:09:29;1.15;;;0.60;;
36383;SDS011;22418;51.210;6.976;2023-01-04T15:12:00;1.38;;;0.60;;
36383;SDS011;22418;51.210;6.976;2023-01-04T15:14:31;4.13;;;0.50;;
36383;SDS011;22418;51.210;6.976;2023-01-04T15:17:01;2.07;;;0.50;;
36383;SDS011;22418;51.210;6.976;2023-01-04T15:19:32;1.37;;;0.50;;
36383;SDS011;22418;51.210;6.976;2023-01-04T15:22:02;2.37;;;0.70;;
36383;SDS011;22418;51.210;6.976;2023-01-04T15:24:33;3.60;;;0.80;;
36383;SDS011;22418;51.210;6.976;2023-01-04T15:27:03;1.20;;;0.60;;
36383;SDS011;22418;51.210;6.976;2023-01-04T15:29:34;2.50;;;0.70;;
36383;SDS011;22418;51.210;6.976;2023-01-04T15:32:04;1.70;;;0.90;;
36383;SDS011;22418;51.210;6.976;2023-01-04T15:34:35;9.67;;;1.00;;
36383;SDS011;22418;51.210;6.976;2023-01-04T15:37:06;4.77;;;1.43;;
36383;SDS011;22418;51.210;6.976;2023-01-04T15:39:39;4.00;;;1.10;;
36383;SDS011;22418;51.210;6.976;2023-01-04T15:42:10;4.10;;;1.23;;
36383;SDS011;22418;51.210;6.976;2023-01-04T15:44:59;4.60;;;1.48;;
36383;SDS011;22418;51.210;6.976;2023-01-04T15:47:30;3.97;;;1.10;;
36383;SDS011;22418;51.210;6.976;2023-01-04T15:52:33;6.82;;;1.40;;
36383;SDS011;22418;51.210;6.976;2023-01-04T15:55:03;5.30;;;1.60;;
36383;SDS011;22418;51.210;6.976;2023-01-04T15:57:34;2.08;;;1.00;;
36383;SDS011;22418;51.210;6.976;2023-01-04T16:00:05;3.67;;;1.37;;
36383;SDS011;22418;51.210;6.976;2023-01-04T16:02:36;6.85;;;1.45;;
36383;SDS011;22418;51.210;6.976;2023-01-04T16:05:07;4.60;;;1.10;;
36383;SDS011;22418;51.210;6.976;2023-01-04T16:07:38;3.97;;;1.20;;
36383;SDS011;22418;51.210;6.976;2023-01-04T16:10:08;6.20;;;1.03;;
36383;SDS011;22418;51.210;6.976;2023-01-04T16:12:39;4.77;;;0.93;;
36383;SDS011;22418;51.210;6.976;2023-01-04T16:15:18;4.22;;;1.35;;
36383;SDS011;22418;51.210;6.976;2023-01-04T16:17:51;2.35;;;0.95;;
36383;SDS011;22418;51.210;6.976;2023-01-04T16:20:22;5.70;;;1.10;;
36383;SDS011;22418;51.210;6.976;2023-01-04T16:22:52;3.00;;;0.93;;
36383;SDS011;22418;51.210;6.976;2023-01-04T16:25:23;3.93;;;1.00;;
36383;SDS011;22418;51.210;6.976;2023-01-04T16:27:53;1.60;;;0.83;;
36383;SDS011;22418;51.210;6.976;2023-01-04T16:30:24;0.97;;;0.60;;
36383;SDS011;22418;51.210;6.976;2023-01-04T16:32:54;3.20;;;0.90;;
36383;SDS011;22418;51.210;6.976;2023-01-04T16:35:25;2.27;;;1.20;;
36383;SDS011;22418;51.210;6.976;2023-01-04T16:37:55;2.73;;;1.37;;
36383;SDS011;22418;51.210;6.976;2023-01-04T16:40:27;2.70;;;1.38;;
36383;SDS011;22418;51.210;6.976;2023-01-04T16:42:58;5.63;;;2.23;;
36383;SDS011;22418;51.210;6.976;2023-01-04T16:45:28;3.17;;;1.60;;
36383;SDS011;22418;51.210;6.976;2023-01-04T16:47:59;3.63;;;1.27;;
36383;SDS011;22418;51.210;6.976;2023-01-04T16:50:30;1.43;;;0.93;;
36383;SDS011;22418;51.210;6.976;2023-01-04T16:53:00;6.47;;;1.40;;
36383;SDS011;22418;51.210;6.976;2023-01-04T16:55:31;4.33;;;1.43;;
36383;SDS011;22418;51.210;6.976;2023-01-04T16:58:02;2.55;;;1.40;;
36383;SDS011;22418;51.210;6.976;2023-01-04T17:00:33;2.23;;;1.37;;
36383;SDS011;22418;51.210;6.976;2023-01-04T17:03:03;1.80;;;1.03;;
36383;SDS011;22418;51.210;6.976;2023-01-04T17:05:37;2.20;;;0.87;;
36383;SDS011;22418;51.210;6.976;2023-01-04T17:08:08;2.22;;;1.00;;
36383;SDS011;22418;51.210;6.976;2023-01-04T17:10:39;2.83;;;0.80;;
36383;SDS011;22418;51.210;6.976;2023-01-04T17:13:09;3.10;;;0.90;;
36383;SDS011;22418;51.210;6.976;2023-01-04T17:15:40;2.07;;;1.00;;
36383;SDS011;22418;51.210;6.976;2023-01-04T17:18:10;3.10;;;1.10;;
36383;SDS011;22418;51.210;6.976;2023-01-04T17:20:45;4.10;;;1.30;;
36383;SDS011;22418;51.210;6.976;2023-01-04T17:23:22;3.13;;;1.20;;
36383;SDS011;22418;51.210;6.976;2023-01-04T17:26:02;7.53;;;2.13;;
36383;SDS011;22418;51.210;6.976;2023-01-04T17:28:36;5.60;;;1.70;;
36383;SDS011;22418;51.210;6.976;2023-01-04T17:31:08;8.45;;;2.17;;
36383;SDS011;22418;51.210;6.976;2023-01-04T17:33:41;7.63;;;1.25;;
36383;SDS011;22418;51.210;6.976;2023-01-04T17:36:13;6.03;;;1.85;;
36383;SDS011;22418;51.210;6.976;2023-01-04T17:38:44;7.68;;;1.60;;
36383;SDS011;22418;51.210;6.976;2023-01-04T17:41:16;8.73;;;1.80;;
36383;SDS011;22418;51.210;6.976;2023-01-04T17:43:54;13.75;;;2.33;;
36383;SDS011;22418;51.210;6.976;2023-01-04T17:46:32;11.07;;;1.75;;